sensor_id;sensor_type;location;lat;lon;timestamp;P1;durP1;ratioP1;P2;durP2;ratioP2
11396;SDS011;5754;43.726;7.416;2023-03-14T00:02:34;12.07;;;4.00;;
11396;SDS011;5754;43.726;7.416;2023-03-14T00:05:09;17.60;;;4.77;;
11396;SDS011;5754;43.726;7.416;2023-03-14T00:07:43;16.33;;;4.50;;
11396;SDS011;5754;43.726;7.416;2023-03-14T00:10:18;15.50;;;3.87;;
11396;SDS011;5754;43.726;7.416;2023-03-14T00:12:53;16.37;;;3.77;;
11396;SDS011;5754;43.726;7.416;2023-03-14T00:15:27;19.57;;;4.73;;
11396;SDS011;5754;43.726;7.416;2023-03-14T00:18:02;22.57;;;4.67;;
11396;SDS011;5754;43.726;7.416;2023-03-14T00:20:36;16.23;;;3.80;;
11396;SDS011;5754;43.726;7.416;2023-03-14T00:23:11;14.10;;;4.20;;
11396;SDS011;5754;43.726;7.416;2023-03-14T00:25:46;13.97;;;4.10;;
11396;SDS011;5754;43.726;7.416;2023-03-14T00:28:20;14.33;;;3.73;;
11396;SDS011;5754;43.726;7.416;2023-03-14T00:30:54;14.80;;;3.90;;
11396;SDS011;5754;43.726;7.416;2023-03-14T00:33:29;12.20;;;3.50;;
11396;SDS011;5754;43.726;7.416;2023-03-14T00:36:07;12.70;;;3.33;;
11396;SDS011;5754;43.726;7.416;2023-03-14T00:38:48;11.90;;;3.50;;
11396;SDS011;5754;43.726;7.416;2023-03-14T00:41:23;13.23;;;3.77;;
11396;SDS011;5754;43.726;7.416;2023-03-14T00:43:58;15.87;;;3.70;;
11396;SDS011;5754;43.726;7.416;2023-03-14T00:46:33;20.03;;;4.13;;
11396;SDS011;5754;43.726;7.416;2023-03-14T00:49:08;17.30;;;3.70;;
11396;SDS011;5754;43.726;7.416;2023-03-14T00:51:42;17.73;;;4.07;;
11396;SDS011;5754;43.726;7.416;2023-03-14T00:54:19;17.60;;;3.60;;
11396;SDS011;5754;43.726;7.416;2023-03-14T00:56:53;14.27;;;3.73;;
11396;SDS011;5754;43.726;7.416;2023-03-14T00:59:29;11.00;;;3.20;;
11396;SDS011;5754;43.726;7.416;2023-03-14T01:02:03;21.70;;;4.10;;
11396;SDS011;5754;43.726;7.416;2023-03-14T01:04:39;13.47;;;3.77;;
11396;SDS011;5754;43.726;7.416;2023-03-14T01:07:16;16.80;;;4.00;;
11396;SDS011;5754;43.726;7.416;2023-03-14T01:09:52;16.30;;;4.17;;
11396;SDS011;5754;43.726;7.416;2023-03-14T01:12:27;14.10;;;3.83;;
11396;SDS011;5754;43.726;7.416;2023-03-14T01:15:01;14.17;;;3.97;;
11396;SDS011;5754;43.726;7.416;2023-03-14T01:17:36;13.40;;;3.20;;
11396;SDS011;5754;43.726;7.416;2023-03-14T01:20:14;16.27;;;3.90;;
11396;SDS011;5754;43.726;7.416;2023-03-14T01:22:49;13.27;;;3.67;;
11396;SDS011;5754;43.726;7.416;2023-03-14T01:25:26;15.60;;;3.67;;
11396;SDS011;5754;43.726;7.416;2023-03-14T01:28:01;17.20;;;3.90;;
11396;SDS011;5754;43.726;7.416;2023-03-14T01:30:35;13.33;;;3.60;;
11396;SDS011;5754;43.726;7.416;2023-03-14T01:33:10;17.87;;;3.93;;
11396;SDS011;5754;43.726;7.416;2023-03-14T01:35:49;13.77;;;3.60;;
11396;SDS011;5754;43.726;7.416;2023-03-14T01:38:24;17.43;;;4.10;;
11396;SDS011;5754;43.726;7.416;2023-03-14T01:41:01;14.87;;;3.87;;
11396;SDS011;5754;43.726;7.416;2023-03-14T01:43:36;13.83;;;3.90;;
11396;SDS011;5754;43.726;7.416;2023-03-14T01:58:28;13.17;;;3.47;;
11396;SDS011;5754;43.726;7.416;2023-03-14T02:01:03;14.10;;;3.03;;
11396;SDS011;5754;43.726;7.416;2023-03-14T02:03:39;12.37;;;3.37;;
11396;SDS011;5754;43.726;7.416;2023-03-14T02:06:21;14.37;;;3.53;;
11396;SDS011;5754;43.726;7.416;2023-03-14T02:08:58;20.10;;;4.20;;
11396;SDS011;5754;43.726;7.416;2023-03-14T02:11:36;19.30;;;4.20;;
11396;SDS011;5754;43.726;7.416;2023-03-14T02:14:31;16.80;;;4.20;;
11396;SDS011;5754;43.726;7.416;2023-03-14T02:17:24;12.90;;;3.87;;
11396;SDS011;5754;43.726;7.416;2023-03-14T02:20:59;16.83;;;4.37;;
11396;SDS011;5754;43.726;7.416;2023-03-14T02:23:38;16.20;;;3.60;;
11396;SDS011;5754;43.726;7.416;2023-03-14T02:26:22;22.70;;;4.43;;
11396;SDS011;5754;43.726;7.416;2023-03-14T02:28:59;18.97;;;4.13;;
11396;SDS011;5754;43.726;7.416;2023-03-14T02:31:34;19.53;;;4.73;;
11396;SDS011;5754;43.726;7.416;2023-03-14T02:34:09;13.03;;;3.50;;
11396;SDS011;5754;43.726;7.416;2023-03-14T02:36:45;16.13;;;3.93;;
11396;SDS011;5754;43.726;7.416;2023-03-14T02:39:21;17.30;;;3.93;;
11396;SDS011;5754;43.726;7.416;2023-03-14T02:42:00;19.27;;;4.00;;
11396;SDS011;5754;43.726;7.416;2023-03-14T02:44:34;15.83;;;4.20;;
11396;SDS011;5754;43.726;7.416;2023-03-14T02:47:09;12.07;;;3.07;;
11396;SDS011;5754;43.726;7.416;2023-03-14T02:49:43;19.67;;;4.53;;
11396;SDS011;5754;43.726;7.416;2023-03-14T02:52:17;21.33;;;4.53;;
11396;SDS011;5754;43.726;7.416;2023-03-14T02:54:52;14.73;;;3.93;;
11396;SDS011;5754;43.726;7.416;2023-03-14T02:57:27;15.13;;;3.53;;
11396;SDS011;5754;43.726;7.416;2023-03-14T03:00:03;12.57;;;3.23;;
11396;SDS011;5754;43.726;7.416;2023-03-14T03:02:41;13.87;;;3.67;;
11396;SDS011;5754;43.726;7.416;2023-03-14T03:05:15;15.00;;;3.63;;
11396;SDS011;5754;43.726;7.416;2023-03-14T03:07:50;11.13;;;3.00;;
11396;SDS011;5754;43.726;7.416;2023-03-14T03:10:24;10.83;;;2.80;;
11396;SDS011;5754;43.726;7.416;2023-03-14T03:12:59;11.50;;;3.33;;
11396;SDS011;5754;43.726;7.416;2023-03-14T03:15:34;14.20;;;3.33;;
11396;SDS011;5754;43.726;7.416;2023-03-14T03:18:08;15.93;;;3.40;;
11396;SDS011;5754;43.726;7.416;2023-03-14T03:20:43;15.53;;;3.67;;
11396;SDS011;5754;43.726;7.416;2023-03-14T03:23:17;13.47;;;3.40;;
11396;SDS011;5754;43.726;7.416;2023-03-14T03:25:51;16.23;;;3.80;;
11396;SDS011;5754;43.726;7.416;2023-03-14T03:28:26;16.07;;;3.33;;
11396;SDS011;5754;43.726;7.416;2023-03-14T03:31:08;17.83;;;4.10;;
11396;SDS011;5754;43.726;7.416;2023-03-14T03:33:43;18.80;;;3.90;;
11396;SDS011;5754;43.726;7.416;2023-03-14T03:36:24;13.67;;;3.27;;
11396;SDS011;5754;43.726;7.416;2023-03-14T03:38:59;15.77;;;3.53;;
11396;SDS011;5754;43.726;7.416;2023-03-14T03:41:33;15.83;;;3.43;;
11396;SDS011;5754;43.726;7.416;2023-03-14T03:44:08;21.80;;;3.77;;
11396;SDS011;5754;43.726;7.416;2023-03-14T03:46:43;13.77;;;3.30;;
11396;SDS011;5754;43.726;7.416;2023-03-14T03:49:18;16.30;;;3.67;;
11396;SDS011;5754;43.726;7.416;2023-03-14T03:51:53;19.73;;;4.97;;
11396;SDS011;5754;43.726;7.416;2023-03-14T03:54:27;17.33;;;4.10;;
11396;SDS011;5754;43.726;7.416;2023-03-14T03:57:03;14.33;;;3.27;;
11396;SDS011;5754;43.726;7.416;2023-03-14T03:59:38;13.67;;;2.60;;
11396;SDS011;5754;43.726;7.416;2023-03-14T04:02:14;11.87;;;2.73;;
11396;SDS011;5754;43.726;7.416;2023-03-14T04:04:50;10.30;;;2.70;;
11396;SDS011;5754;43.726;7.416;2023-03-14T04:07:24;6.67;;;2.47;;
11396;SDS011;5754;43.726;7.416;2023-03-14T04:09:59;5.63;;;1.93;;
11396;SDS011;5754;43.726;7.416;2023-03-14T04:13:04;4.93;;;1.40;;
11396;SDS011;5754;43.726;7.416;2023-03-14T04:15:41;3.27;;;1.40;;
11396;SDS011;5754;43.726;7.416;2023-03-14T04:18:21;6.70;;;1.70;;
11396;SDS011;5754;43.726;7.416;2023-03-14T04:20:58;8.30;;;2.23;;
11396;SDS011;5754;43.726;7.416;2023-03-14T04:23:41;8.20;;;1.97;;
11396;SDS011;5754;43.726;7.416;2023-03-14T04:26:16;11.47;;;2.47;;
11396;SDS011;5754;43.726;7.416;2023-03-14T04:28:51;11.37;;;2.50;;
11396;SDS011;5754;43.726;7.416;2023-03-14T04:31:28;10.63;;;2.20;;
11396;SDS011;5754;43.726;7.416;2023-03-14T04:34:04;8.30;;;2.33;;
11396;SDS011;5754;43.726;7.416;2023-03-14T04:36:43;5.47;;;2.03;;
11396;SDS011;5754;43.726;7.416;2023-03-14T04:39:25;7.37;;;1.93;;
11396;SDS011;5754;43.726;7.416;2023-03-14T04:42:06;4.10;;;1.70;;
11396;SDS011;5754;43.726;7.416;2023-03-14T04:44:47;7.60;;;1.80;;
11396;SDS011;5754;43.726;7.416;2023-03-14T04:47:23;3.47;;;1.37;;
11396;SDS011;5754;43.726;7.416;2023-03-14T04:49:58;3.83;;;1.73;;
11396;SDS011;5754;43.726;7.416;2023-03-14T04:52:33;3.50;;;1.33;;
11396;SDS011;5754;43.726;7.416;2023-03-14T04:55:08;4.40;;;1.50;;
11396;SDS011;5754;43.726;7.416;2023-03-14T04:57:43;5.17;;;1.60;;
11396;SDS011;5754;43.726;7.416;2023-03-14T05:00:18;4.10;;;1.40;;
11396;SDS011;5754;43.726;7.416;2023-03-14T05:03:04;4.80;;;1.70;;
11396;SDS011;5754;43.726;7.416;2023-03-14T05:05:52;4.27;;;1.50;;
11396;SDS011;5754;43.726;7.416;2023-03-14T05:08:47;3.90;;;1.37;;
11396;SDS011;5754;43.726;7.416;2023-03-14T05:12:52;1.83;;;1.10;;
11396;SDS011;5754;43.726;7.416;2023-03-14T05:15:45;1.63;;;0.77;;
11396;SDS011;5754;43.726;7.416;2023-03-14T05:19:08;1.40;;;0.80;;
11396;SDS011;5754;43.726;7.416;2023-03-14T05:23:05;2.27;;;0.80;;
11396;SDS011;5754;43.726;7.416;2023-03-14T05:26:06;1.47;;;0.57;;
11396;SDS011;5754;43.726;7.416;2023-03-14T05:28:58;1.00;;;0.67;;
11396;SDS011;5754;43.726;7.416;2023-03-14T05:32:10;3.60;;;1.30;;
11396;SDS011;5754;43.726;7.416;2023-03-14T05:35:55;3.33;;;1.57;;
11396;SDS011;5754;43.726;7.416;2023-03-14T05:39:12;3.63;;;1.33;;
11396;SDS011;5754;43.726;7.416;2023-03-14T05:42:06;3.77;;;1.10;;
11396;SDS011;5754;43.726;7.416;2023-03-14T05:45:01;2.63;;;1.10;;
11396;SDS011;5754;43.726;7.416;2023-03-14T05:48:04;3.70;;;1.37;;
11396;SDS011;5754;43.726;7.416;2023-03-14T05:50:56;1.57;;;0.90;;
11396;SDS011;5754;43.726;7.416;2023-03-14T05:55:22;1.57;;;1.23;;
11396;SDS011;5754;43.726;7.416;2023-03-14T05:58:18;0.93;;;0.80;;
11396;SDS011;5754;43.726;7.416;2023-03-14T06:01:45;1.37;;;0.80;;
11396;SDS011;5754;43.726;7.416;2023-03-14T06:04:24;0.67;;;0.47;;
11396;SDS011;5754;43.726;7.416;2023-03-14T06:07:03;1.50;;;0.53;;
11396;SDS011;5754;43.726;7.416;2023-03-14T06:09:38;0.53;;;0.50;;
11396;SDS011;5754;43.726;7.416;2023-03-14T06:12:13;0.43;;;0.43;;
11396;SDS011;5754;43.726;7.416;2023-03-14T06:14:49;1.50;;;0.40;;
11396;SDS011;5754;43.726;7.416;2023-03-14T06:17:24;0.40;;;0.40;;
11396;SDS011;5754;43.726;7.416;2023-03-14T06:20:06;0.30;;;0.30;;
11396;SDS011;5754;43.726;7.416;2023-03-14T06:22:41;0.30;;;0.30;;
11396;SDS011;5754;43.726;7.416;2023-03-14T06:25:18;1.87;;;0.50;;
11396;SDS011;5754;43.726;7.416;2023-03-14T06:27:53;0.53;;;0.43;;
11396;SDS011;5754;43.726;7.416;2023-03-14T06:30:28;0.40;;;0.40;;
11396;SDS011;5754;43.726;7.416;2023-03-14T06:33:03;45.10;;;27.07;;
11396;SDS011;5754;43.726;7.416;2023-03-14T06:35:38;0.67;;;0.67;;
11396;SDS011;5754;43.726;7.416;2023-03-14T06:38:13;2.70;;;0.90;;
11396;SDS011;5754;43.726;7.416;2023-03-14T06:40:49;1.67;;;0.80;;
11396;SDS011;5754;43.726;7.416;2023-03-14T06:43:33;0.70;;;0.60;;
11396;SDS011;5754;43.726;7.416;2023-03-14T06:46:09;2.33;;;0.87;;
11396;SDS011;5754;43.726;7.416;2023-03-14T06:48:44;2.07;;;0.80;;
11396;SDS011;5754;43.726;7.416;2023-03-14T06:51:20;1.77;;;0.73;;
11396;SDS011;5754;43.726;7.416;2023-03-14T06:53:55;0.40;;;0.40;;
11396;SDS011;5754;43.726;7.416;2023-03-14T06:56:32;1.50;;;0.57;;
11396;SDS011;5754;43.726;7.416;2023-03-14T06:59:06;1.67;;;0.50;;
11396;SDS011;5754;43.726;7.416;2023-03-14T07:01:42;0.30;;;0.30;;
11396;SDS011;5754;43.726;7.416;2023-03-14T07:04:17;0.53;;;0.50;;
11396;SDS011;5754;43.726;7.416;2023-03-14T07:06:53;0.80;;;0.70;;
11396;SDS011;5754;43.726;7.416;2023-03-14T07:09:28;0.85;;;0.45;;
11396;SDS011;5754;43.726;7.416;2023-03-14T07:12:05;1.17;;;0.40;;
11396;SDS011;5754;43.726;7.416;2023-03-14T07:14:39;2.72;;;0.77;;
11396;SDS011;5754;43.726;7.416;2023-03-14T07:17:15;4.10;;;1.40;;
11396;SDS011;5754;43.726;7.416;2023-03-14T07:19:49;3.53;;;1.17;;
11396;SDS011;5754;43.726;7.416;2023-03-14T07:22:23;6.05;;;1.62;;
11396;SDS011;5754;43.726;7.416;2023-03-14T07:24:58;3.12;;;1.70;;
11396;SDS011;5754;43.726;7.416;2023-03-14T07:27:33;8.38;;;2.70;;
11396;SDS011;5754;43.726;7.416;2023-03-14T07:30:08;7.43;;;2.25;;
11396;SDS011;5754;43.726;7.416;2023-03-14T07:32:43;4.53;;;1.90;;
11396;SDS011;5754;43.726;7.416;2023-03-14T07:35:18;7.55;;;1.80;;
11396;SDS011;5754;43.726;7.416;2023-03-14T07:37:53;9.38;;;2.05;;
11396;SDS011;5754;43.726;7.416;2023-03-14T07:40:33;1.85;;;1.10;;
11396;SDS011;5754;43.726;7.416;2023-03-14T07:43:09;4.37;;;1.37;;
11396;SDS011;5754;43.726;7.416;2023-03-14T07:45:52;2.97;;;1.40;;
11396;SDS011;5754;43.726;7.416;2023-03-14T07:48:32;4.78;;;1.50;;
11396;SDS011;5754;43.726;7.416;2023-03-14T07:51:08;5.07;;;1.65;;
11396;SDS011;5754;43.726;7.416;2023-03-14T07:53:43;3.20;;;1.30;;
11396;SDS011;5754;43.726;7.416;2023-03-14T07:56:18;3.95;;;1.20;;
11396;SDS011;5754;43.726;7.416;2023-03-14T07:58:53;3.65;;;1.10;;
11396;SDS011;5754;43.726;7.416;2023-03-14T08:01:28;2.37;;;1.15;;
11396;SDS011;5754;43.726;7.416;2023-03-14T08:04:02;4.77;;;1.40;;
11396;SDS011;5754;43.726;7.416;2023-03-14T08:06:38;4.20;;;1.63;;
11396;SDS011;5754;43.726;7.416;2023-03-14T08:09:13;2.63;;;1.37;;
11396;SDS011;5754;43.726;7.416;2023-03-14T08:11:49;4.70;;;1.33;;
11396;SDS011;5754;43.726;7.416;2023-03-14T08:14:24;3.37;;;1.27;;
11396;SDS011;5754;43.726;7.416;2023-03-14T08:16:58;5.23;;;1.50;;
11396;SDS011;5754;43.726;7.416;2023-03-14T08:19:33;5.30;;;1.80;;
11396;SDS011;5754;43.726;7.416;2023-03-14T08:22:07;4.03;;;1.40;;
11396;SDS011;5754;43.726;7.416;2023-03-14T08:24:42;3.87;;;1.30;;
11396;SDS011;5754;43.726;7.416;2023-03-14T08:27:16;4.77;;;1.20;;
11396;SDS011;5754;43.726;7.416;2023-03-14T08:29:51;9.23;;;1.93;;
11396;SDS011;5754;43.726;7.416;2023-03-14T08:32:26;8.27;;;1.57;;
11396;SDS011;5754;43.726;7.416;2023-03-14T08:35:00;6.90;;;1.70;;
11396;SDS011;5754;43.726;7.416;2023-03-14T08:40:16;13.13;;;3.80;;
11396;SDS011;5754;43.726;7.416;2023-03-14T08:42:51;16.23;;;4.23;;
11396;SDS011;5754;43.726;7.416;2023-03-14T08:45:25;18.27;;;4.77;;
11396;SDS011;5754;43.726;7.416;2023-03-14T08:48:01;15.30;;;3.83;;
11396;SDS011;5754;43.726;7.416;2023-03-14T08:50:35;13.03;;;4.33;;
11396;SDS011;5754;43.726;7.416;2023-03-14T08:53:10;8.93;;;3.00;;
11396;SDS011;5754;43.726;7.416;2023-03-14T08:55:45;11.77;;;2.50;;
11396;SDS011;5754;43.726;7.416;2023-03-14T08:58:37;8.27;;;2.33;;
11396;SDS011;5754;43.726;7.416;2023-03-14T09:01:12;13.97;;;4.10;;
11396;SDS011;5754;43.726;7.416;2023-03-14T09:03:46;8.83;;;3.57;;
11396;SDS011;5754;43.726;7.416;2023-03-14T09:06:22;17.60;;;4.20;;
11396;SDS011;5754;43.726;7.416;2023-03-14T09:08:57;5.67;;;2.20;;
11396;SDS011;5754;43.726;7.416;2023-03-14T09:11:31;16.33;;;5.03;;
11396;SDS011;5754;43.726;7.416;2023-03-14T09:14:06;13.20;;;4.17;;
11396;SDS011;5754;43.726;7.416;2023-03-14T09:16:41;13.83;;;4.40;;
11396;SDS011;5754;43.726;7.416;2023-03-14T09:19:15;9.43;;;3.57;;
11396;SDS011;5754;43.726;7.416;2023-03-14T09:21:50;11.17;;;3.87;;
11396;SDS011;5754;43.726;7.416;2023-03-14T09:24:25;11.80;;;3.23;;
11396;SDS011;5754;43.726;7.416;2023-03-14T09:26:59;10.10;;;3.27;;
11396;SDS011;5754;43.726;7.416;2023-03-14T09:29:34;9.37;;;2.50;;
11396;SDS011;5754;43.726;7.416;2023-03-14T09:32:08;6.47;;;2.40;;
11396;SDS011;5754;43.726;7.416;2023-03-14T09:34:43;8.00;;;2.90;;
11396;SDS011;5754;43.726;7.416;2023-03-14T09:37:17;11.47;;;3.47;;
11396;SDS011;5754;43.726;7.416;2023-03-14T09:39:53;8.90;;;2.07;;
11396;SDS011;5754;43.726;7.416;2023-03-14T09:42:28;5.80;;;2.30;;
11396;SDS011;5754;43.726;7.416;2023-03-14T09:45:03;8.40;;;2.50;;
11396;SDS011;5754;43.726;7.416;2023-03-14T09:47:39;8.43;;;2.60;;
11396;SDS011;5754;43.726;7.416;2023-03-14T09:50:22;7.70;;;1.93;;
11396;SDS011;5754;43.726;7.416;2023-03-14T09:52:59;8.43;;;2.10;;
11396;SDS011;5754;43.726;7.416;2023-03-14T09:55:35;7.90;;;2.33;;
11396;SDS011;5754;43.726;7.416;2023-03-14T09:58:11;7.37;;;2.00;;
11396;SDS011;5754;43.726;7.416;2023-03-14T10:00:46;11.10;;;2.20;;
11396;SDS011;5754;43.726;7.416;2023-03-14T10:03:33;7.07;;;2.57;;
11396;SDS011;5754;43.726;7.416;2023-03-14T10:06:10;6.43;;;1.90;;
11396;SDS011;5754;43.726;7.416;2023-03-14T10:08:46;10.33;;;1.80;;
11396;SDS011;5754;43.726;7.416;2023-03-14T10:11:22;4.13;;;1.50;;
11396;SDS011;5754;43.726;7.416;2023-03-14T10:14:07;4.60;;;1.80;;
11396;SDS011;5754;43.726;7.416;2023-03-14T10:16:42;6.77;;;2.00;;
11396;SDS011;5754;43.726;7.416;2023-03-14T10:19:17;4.77;;;1.80;;
11396;SDS011;5754;43.726;7.416;2023-03-14T10:21:52;8.63;;;2.07;;
11396;SDS011;5754;43.726;7.416;2023-03-14T10:24:27;4.17;;;1.50;;
11396;SDS011;5754;43.726;7.416;2023-03-14T10:27:04;3.83;;;1.20;;
11396;SDS011;5754;43.726;7.416;2023-03-14T10:29:52;1.83;;;1.00;;
11396;SDS011;5754;43.726;7.416;2023-03-14T10:32:33;2.70;;;0.80;;
11396;SDS011;5754;43.726;7.416;2023-03-14T10:35:18;0.93;;;0.80;;
11396;SDS011;5754;43.726;7.416;2023-03-14T10:37:55;1.83;;;1.00;;
11396;SDS011;5754;43.726;7.416;2023-03-14T10:40:32;1.77;;;0.87;;
11396;SDS011;5754;43.726;7.416;2023-03-14T10:43:13;1.60;;;1.00;;
11396;SDS011;5754;43.726;7.416;2023-03-14T10:45:52;3.57;;;1.40;;
11396;SDS011;5754;43.726;7.416;2023-03-14T10:48:32;1.40;;;1.10;;
11396;SDS011;5754;43.726;7.416;2023-03-14T10:51:10;2.20;;;0.70;;
11396;SDS011;5754;43.726;7.416;2023-03-14T10:54:01;2.80;;;0.60;;
11396;SDS011;5754;43.726;7.416;2023-03-14T10:56:37;1.80;;;0.57;;
11396;SDS011;5754;43.726;7.416;2023-03-14T10:59:15;1.67;;;0.53;;
11396;SDS011;5754;43.726;7.416;2023-03-14T11:05:56;3.63;;;1.20;;
11396;SDS011;5754;43.726;7.416;2023-03-14T11:08:55;2.33;;;0.80;;
11396;SDS011;5754;43.726;7.416;2023-03-14T11:11:31;6.40;;;1.13;;
11396;SDS011;5754;43.726;7.416;2023-03-14T11:14:18;5.03;;;0.90;;
11396;SDS011;5754;43.726;7.416;2023-03-14T11:17:30;2.77;;;0.80;;
11396;SDS011;5754;43.726;7.416;2023-03-14T11:25:26;2.28;;;0.70;;
11396;SDS011;5754;43.726;7.416;2023-03-14T11:28:18;1.10;;;0.60;;
11396;SDS011;5754;43.726;7.416;2023-03-14T11:31:03;0.83;;;0.40;;
11396;SDS011;5754;43.726;7.416;2023-03-14T11:33:46;1.27;;;0.40;;
11396;SDS011;5754;43.726;7.416;2023-03-14T11:36:23;0.70;;;0.53;;
11396;SDS011;5754;43.726;7.416;2023-03-14T11:38:59;0.63;;;0.63;;
11396;SDS011;5754;43.726;7.416;2023-03-14T11:41:35;1.12;;;0.82;;
11396;SDS011;5754;43.726;7.416;2023-03-14T11:44:20;1.67;;;0.43;;
11396;SDS011;5754;43.726;7.416;2023-03-14T11:46:59;1.70;;;0.63;;
11396;SDS011;5754;43.726;7.416;2023-03-14T11:49:38;4.40;;;1.00;;
11396;SDS011;5754;43.726;7.416;2023-03-14T11:52:16;2.40;;;0.80;;
11396;SDS011;5754;43.726;7.416;2023-03-14T11:55:02;2.53;;;1.10;;
11396;SDS011;5754;43.726;7.416;2023-03-14T11:57:39;0.83;;;0.83;;
11396;SDS011;5754;43.726;7.416;2023-03-14T12:00:18;1.07;;;0.90;;
11396;SDS011;5754;43.726;7.416;2023-03-14T12:02:56;1.57;;;1.07;;
11396;SDS011;5754;43.726;7.416;2023-03-14T12:05:37;7.70;;;2.00;;
11396;SDS011;5754;43.726;7.416;2023-03-14T12:12:11;10.33;;;3.00;;
11396;SDS011;5754;43.726;7.416;2023-03-14T12:14:52;9.53;;;3.23;;
11396;SDS011;5754;43.726;7.416;2023-03-14T12:17:39;16.30;;;3.83;;
11396;SDS011;5754;43.726;7.416;2023-03-14T12:20:18;14.90;;;3.00;;
11396;SDS011;5754;43.726;7.416;2023-03-14T12:22:55;10.80;;;3.40;;
11396;SDS011;5754;43.726;7.416;2023-03-14T12:25:30;14.43;;;3.30;;
11396;SDS011;5754;43.726;7.416;2023-03-14T12:28:52;14.47;;;3.43;;
11396;SDS011;5754;43.726;7.416;2023-03-14T12:31:47;10.20;;;3.10;;
11396;SDS011;5754;43.726;7.416;2023-03-14T12:34:27;11.43;;;3.20;;
11396;SDS011;5754;43.726;7.416;2023-03-14T12:37:04;14.50;;;3.30;;
11396;SDS011;5754;43.726;7.416;2023-03-14T12:39:58;16.33;;;3.23;;
11396;SDS011;5754;43.726;7.416;2023-03-14T12:46:35;12.47;;;3.40;;
11396;SDS011;5754;43.726;7.416;2023-03-14T12:49:10;12.57;;;3.43;;
11396;SDS011;5754;43.726;7.416;2023-03-14T12:51:45;9.73;;;2.97;;
11396;SDS011;5754;43.726;7.416;2023-03-14T12:54:42;15.20;;;3.40;;
11396;SDS011;5754;43.726;7.416;2023-03-14T12:57:38;12.63;;;3.00;;
11396;SDS011;5754;43.726;7.416;2023-03-14T13:03:57;12.93;;;3.23;;
11396;SDS011;5754;43.726;7.416;2023-03-14T13:06:46;7.87;;;3.07;;
11396;SDS011;5754;43.726;7.416;2023-03-14T13:13:21;16.47;;;3.97;;
11396;SDS011;5754;43.726;7.416;2023-03-14T13:15:56;11.80;;;3.47;;
11396;SDS011;5754;43.726;7.416;2023-03-14T13:18:40;12.33;;;3.17;;
11396;SDS011;5754;43.726;7.416;2023-03-14T13:21:16;17.43;;;3.50;;
11396;SDS011;5754;43.726;7.416;2023-03-14T13:24:03;10.63;;;3.60;;
11396;SDS011;5754;43.726;7.416;2023-03-14T13:26:40;14.27;;;4.40;;
11396;SDS011;5754;43.726;7.416;2023-03-14T13:29:29;13.40;;;3.70;;
11396;SDS011;5754;43.726;7.416;2023-03-14T13:32:17;14.27;;;4.10;;
11396;SDS011;5754;43.726;7.416;2023-03-14T13:34:52;11.57;;;3.80;;
11396;SDS011;5754;43.726;7.416;2023-03-14T13:37:29;8.03;;;3.27;;
11396;SDS011;5754;43.726;7.416;2023-03-14T13:40:04;14.87;;;4.30;;
11396;SDS011;5754;43.726;7.416;2023-03-14T13:42:39;15.27;;;3.93;;
11396;SDS011;5754;43.726;7.416;2023-03-14T13:45:14;13.40;;;3.93;;
11396;SDS011;5754;43.726;7.416;2023-03-14T13:47:48;12.90;;;3.40;;
11396;SDS011;5754;43.726;7.416;2023-03-14T13:50:24;17.03;;;4.33;;
11396;SDS011;5754;43.726;7.416;2023-03-14T13:52:59;22.53;;;5.10;;
11396;SDS011;5754;43.726;7.416;2023-03-14T13:55:34;14.87;;;4.87;;
11396;SDS011;5754;43.726;7.416;2023-03-14T13:58:11;13.70;;;4.03;;
11396;SDS011;5754;43.726;7.416;2023-03-14T14:00:54;11.90;;;4.33;;
11396;SDS011;5754;43.726;7.416;2023-03-14T14:03:34;15.80;;;4.47;;
11396;SDS011;5754;43.726;7.416;2023-03-14T14:06:17;13.67;;;4.50;;
11396;SDS011;5754;43.726;7.416;2023-03-14T14:08:58;15.90;;;4.43;;
11396;SDS011;5754;43.726;7.416;2023-03-14T14:11:36;14.07;;;4.20;;
11396;SDS011;5754;43.726;7.416;2023-03-14T14:14:21;12.20;;;3.97;;
11396;SDS011;5754;43.726;7.416;2023-03-14T14:16:59;14.77;;;4.37;;
11396;SDS011;5754;43.726;7.416;2023-03-14T14:19:35;17.70;;;4.47;;
11396;SDS011;5754;43.726;7.416;2023-03-14T14:22:11;17.73;;;4.73;;
11396;SDS011;5754;43.726;7.416;2023-03-14T14:24:45;15.00;;;4.30;;
11396;SDS011;5754;43.726;7.416;2023-03-14T14:27:27;12.93;;;4.10;;
11396;SDS011;5754;43.726;7.416;2023-03-14T14:30:06;17.27;;;4.23;;
11396;SDS011;5754;43.726;7.416;2023-03-14T14:32:41;16.50;;;4.50;;
11396;SDS011;5754;43.726;7.416;2023-03-14T14:35:32;16.50;;;4.37;;
11396;SDS011;5754;43.726;7.416;2023-03-14T14:38:10;14.57;;;4.60;;
11396;SDS011;5754;43.726;7.416;2023-03-14T14:40:48;14.47;;;4.77;;
11396;SDS011;5754;43.726;7.416;2023-03-14T14:43:23;14.10;;;4.50;;
11396;SDS011;5754;43.726;7.416;2023-03-14T14:45:59;13.47;;;4.03;;
11396;SDS011;5754;43.726;7.416;2023-03-14T14:48:36;15.47;;;4.10;;
11396;SDS011;5754;43.726;7.416;2023-03-14T14:51:11;15.77;;;3.90;;
11396;SDS011;5754;43.726;7.416;2023-03-14T14:53:45;17.23;;;4.90;;
11396;SDS011;5754;43.726;7.416;2023-03-14T14:56:27;15.13;;;3.93;;
11396;SDS011;5754;43.726;7.416;2023-03-14T14:59:02;16.90;;;4.70;;
11396;SDS011;5754;43.726;7.416;2023-03-14T15:01:39;12.80;;;3.37;;
11396;SDS011;5754;43.726;7.416;2023-03-14T15:04:14;14.37;;;4.07;;
11396;SDS011;5754;43.726;7.416;2023-03-14T15:06:49;19.33;;;4.43;;
11396;SDS011;5754;43.726;7.416;2023-03-14T15:09:26;18.33;;;4.30;;
11396;SDS011;5754;43.726;7.416;2023-03-14T15:12:00;13.00;;;3.90;;
11396;SDS011;5754;43.726;7.416;2023-03-14T15:14:34;15.03;;;4.20;;
11396;SDS011;5754;43.726;7.416;2023-03-14T15:17:10;16.00;;;4.07;;
11396;SDS011;5754;43.726;7.416;2023-03-14T15:19:46;15.37;;;3.53;;
11396;SDS011;5754;43.726;7.416;2023-03-14T15:22:20;13.63;;;3.23;;
11396;SDS011;5754;43.726;7.416;2023-03-14T15:24:55;16.57;;;3.97;;
11396;SDS011;5754;43.726;7.416;2023-03-14T15:27:30;14.90;;;3.40;;
11396;SDS011;5754;43.726;7.416;2023-03-14T15:30:08;14.67;;;4.23;;
11396;SDS011;5754;43.726;7.416;2023-03-14T15:32:43;12.13;;;3.37;;
11396;SDS011;5754;43.726;7.416;2023-03-14T15:35:18;15.87;;;4.17;;
11396;SDS011;5754;43.726;7.416;2023-03-14T15:37:53;14.03;;;3.73;;
11396;SDS011;5754;43.726;7.416;2023-03-14T15:40:27;15.40;;;2.97;;
11396;SDS011;5754;43.726;7.416;2023-03-14T15:43:04;18.17;;;3.57;;
11396;SDS011;5754;43.726;7.416;2023-03-14T15:45:38;11.67;;;2.90;;
11396;SDS011;5754;43.726;7.416;2023-03-14T15:48:16;11.87;;;3.20;;
11396;SDS011;5754;43.726;7.416;2023-03-14T15:50:51;11.33;;;2.93;;
11396;SDS011;5754;43.726;7.416;2023-03-14T15:53:25;14.63;;;3.43;;
11396;SDS011;5754;43.726;7.416;2023-03-14T15:56:00;15.20;;;3.47;;
11396;SDS011;5754;43.726;7.416;2023-03-14T15:58:35;15.47;;;3.60;;
11396;SDS011;5754;43.726;7.416;2023-03-14T16:01:14;23.13;;;4.10;;
11396;SDS011;5754;43.726;7.416;2023-03-14T16:03:52;15.03;;;3.40;;
11396;SDS011;5754;43.726;7.416;2023-03-14T16:06:27;22.40;;;4.67;;
11396;SDS011;5754;43.726;7.416;2023-03-14T16:09:02;28.00;;;5.60;;
11396;SDS011;5754;43.726;7.416;2023-03-14T16:11:38;23.57;;;5.10;;
11396;SDS011;5754;43.726;7.416;2023-03-14T16:14:12;25.03;;;4.70;;
11396;SDS011;5754;43.726;7.416;2023-03-14T16:16:48;23.70;;;4.43;;
11396;SDS011;5754;43.726;7.416;2023-03-14T16:19:23;21.13;;;4.33;;
11396;SDS011;5754;43.726;7.416;2023-03-14T16:21:59;29.10;;;5.20;;
11396;SDS011;5754;43.726;7.416;2023-03-14T16:24:33;22.97;;;4.87;;
11396;SDS011;5754;43.726;7.416;2023-03-14T16:27:08;22.87;;;5.03;;
11396;SDS011;5754;43.726;7.416;2023-03-14T16:29:42;25.73;;;5.17;;
11396;SDS011;5754;43.726;7.416;2023-03-14T16:32:17;21.60;;;4.93;;
11396;SDS011;5754;43.726;7.416;2023-03-14T16:34:51;23.60;;;4.63;;
11396;SDS011;5754;43.726;7.416;2023-03-14T16:37:25;25.70;;;5.10;;
11396;SDS011;5754;43.726;7.416;2023-03-14T16:40:00;21.53;;;4.63;;
11396;SDS011;5754;43.726;7.416;2023-03-14T16:42:50;22.50;;;4.63;;
11396;SDS011;5754;43.726;7.416;2023-03-14T16:45:48;18.70;;;3.70;;
11396;SDS011;5754;43.726;7.416;2023-03-14T16:48:24;25.77;;;5.37;;